Parson, Canada
Current Conditions -  °F | °C
As of 6:00 PM on Monday 20 Oct 2014 (Local Time) from CYGE Reporting Station
Rain Showers Rain Showers  
Wind Chill: 50°   Ceiling: 8000
Heat Index: 50°   Visibility: 12mi
Dew Point: 46°   Wind: 6mph
Humidity: 87%   Direction: 340°NNW
Pressure: 29.73"   Gusts: NA
Location:  51.1°N, 116.7°W
Report Text: CYGE 210000Z 34005KT 300V020 12SM -SHRA BKN080TCU OVC160 10/08 A2973 RMK TCU6AS2 LAST OBS/NEXT 211200Z SLP084 DENSITY ALT 2700FT
Loading
Personal Weather Stations






























Interactive Weather Map
Tropical Storm Tracking
New forecast layout! Learn more

10-Day Weather Forecast

Advertisements
Track Severe Weather on mobile